createdAt,value
2022-11-30T00:01:48.394Z,2.21
2022-11-30T00:04:14.926Z,2.22
2022-11-30T00:06:44.525Z,2.21
2022-11-30T00:09:13.243Z,2.21
2022-11-30T00:11:39.777Z,2.17
2022-11-30T00:14:06.889Z,2.20
2022-11-30T00:16:33.475Z,2.20
2022-11-30T00:19:00.003Z,2.15
2022-11-30T00:21:26.487Z,2.17
2022-11-30T00:23:52.978Z,2.13
2022-11-30T00:26:22.467Z,2.14
2022-11-30T00:28:49.494Z,2.19
2022-11-30T00:31:18.598Z,2.20
2022-11-30T00:33:45.504Z,2.22
2022-11-30T00:36:17.292Z,2.23
2022-11-30T00:38:44.343Z,2.21
2022-11-30T00:41:11.544Z,2.21
2022-11-30T00:43:38.098Z,2.23
2022-11-30T00:46:05.769Z,2.25
2022-11-30T00:48:32.369Z,2.25
2022-11-30T00:50:58.962Z,2.23
2022-11-30T00:53:25.579Z,2.19
2022-11-30T00:55:52.158Z,2.16
2022-11-30T00:58:18.793Z,2.13
2022-11-30T01:00:46.043Z,2.10
2022-11-30T01:03:12.849Z,2.08
2022-11-30T01:05:39.966Z,2.06
2022-11-30T01:08:08.253Z,2.10
2022-11-30T01:10:35.964Z,2.11
2022-11-30T01:13:02.589Z,2.09
2022-11-30T01:15:29.612Z,2.13
2022-11-30T01:17:56.406Z,2.08
2022-11-30T01:20:22.945Z,2.09
2022-11-30T01:22:49.518Z,2.05
2022-11-30T01:25:16.133Z,2.06
2022-11-30T01:27:42.813Z,2.10
2022-11-30T01:30:09.910Z,2.03
2022-11-30T01:32:36.368Z,2.08
2022-11-30T01:35:02.939Z,2.12
2022-11-30T01:37:32.464Z,2.06
2022-11-30T01:39:59.010Z,2.08
2022-11-30T01:42:25.539Z,2.05
2022-11-30T01:45:00.269Z,2.07
2022-11-30T01:47:32.736Z,2.04
2022-11-30T01:50:14.922Z,2.05
2022-11-30T01:52:44.951Z,2.06
2022-11-30T01:55:27.078Z,2.07
2022-11-30T01:58:00.735Z,2.07
2022-11-30T02:00:27.526Z,2.00
2022-11-30T02:03:05.231Z,1.98
2022-11-30T02:05:36.095Z,1.97
2022-11-30T02:08:02.898Z,2.04
2022-11-30T02:10:32.505Z,2.06
2022-11-30T02:13:17.313Z,2.04
2022-11-30T02:15:55.906Z,1.95
2022-11-30T02:18:59.013Z,1.96
2022-11-30T02:21:46.990Z,1.95
2022-11-30T02:24:25.725Z,1.94
2022-11-30T02:27:17.592Z,1.98
2022-11-30T02:29:49.722Z,1.94
2022-11-30T02:32:38.572Z,1.95
2022-11-30T02:35:07.876Z,1.92
2022-11-30T02:37:37.160Z,1.91
2022-11-30T02:40:09.583Z,1.93
2022-11-30T02:42:36.092Z,1.90
2022-11-30T02:45:03.104Z,1.87
2022-11-30T02:47:40.529Z,1.86
2022-11-30T02:50:22.549Z,1.86
2022-11-30T02:52:52.597Z,1.89
2022-11-30T02:55:20.256Z,1.86
2022-11-30T02:57:47.138Z,1.92
2022-11-30T03:00:14.717Z,1.96
2022-11-30T03:02:41.839Z,1.92
2022-11-30T03:05:09.405Z,1.98
2022-11-30T03:07:36.238Z,1.98
2022-11-30T03:10:03.294Z,1.99
2022-11-30T03:12:29.845Z,1.96
2022-11-30T03:14:56.382Z,1.94
2022-11-30T03:17:23.158Z,1.96
2022-11-30T03:19:49.635Z,1.91
2022-11-30T03:22:16.230Z,1.92
2022-11-30T03:24:42.805Z,1.91
2022-11-30T03:27:09.385Z,1.87
2022-11-30T03:29:35.951Z,1.89
2022-11-30T03:32:02.462Z,1.88
2022-11-30T03:34:29.008Z,1.92
2022-11-30T03:36:55.680Z,1.83
2022-11-30T03:39:22.222Z,1.84
2022-11-30T03:41:48.702Z,1.88
2022-11-30T03:44:15.194Z,1.84
2022-11-30T03:46:41.740Z,1.90
2022-11-30T03:49:08.315Z,1.88
2022-11-30T03:51:35.437Z,1.90
2022-11-30T03:54:01.969Z,1.88
2022-11-30T03:56:28.791Z,1.92
2022-11-30T03:58:55.417Z,1.90
2022-11-30T04:01:23.649Z,1.92
2022-11-30T04:03:51.821Z,1.86
2022-11-30T04:06:19.055Z,1.84
2022-11-30T04:08:46.217Z,1.75
2022-11-30T04:11:13.686Z,1.81
2022-11-30T04:13:40.967Z,1.75
2022-11-30T04:16:08.920Z,1.78
2022-11-30T04:18:36.922Z,1.77
2022-11-30T04:21:04.244Z,1.77
2022-11-30T04:23:34.585Z,1.79
2022-11-30T04:26:06.966Z,1.77
2022-11-30T04:28:34.571Z,1.74
2022-11-30T04:31:02.574Z,1.78
2022-11-30T04:33:29.706Z,1.74
2022-11-30T04:35:58.807Z,1.70
2022-11-30T04:38:26.134Z,1.73
2022-11-30T04:40:52.809Z,1.75
2022-11-30T04:43:20.230Z,1.74
2022-11-30T04:45:46.889Z,1.73
2022-11-30T04:48:13.711Z,1.75
2022-11-30T04:50:40.338Z,1.74
2022-11-30T04:53:07.677Z,1.76
2022-11-30T04:55:34.232Z,1.74
2022-11-30T04:58:00.810Z,1.78
2022-11-30T05:00:27.380Z,1.71
2022-11-30T05:02:56.500Z,1.67
2022-11-30T05:05:23.664Z,1.67
2022-11-30T05:07:51.767Z,1.67
2022-11-30T05:10:18.617Z,1.69
2022-11-30T05:12:45.396Z,1.66
2022-11-30T05:15:12.224Z,1.66
2022-11-30T05:17:39.435Z,1.67
2022-11-30T05:20:07.875Z,1.63
2022-11-30T05:22:37.512Z,1.64
2022-11-30T05:25:04.185Z,1.67
2022-11-30T05:27:30.880Z,1.63
2022-11-30T05:29:57.555Z,1.64
2022-11-30T05:32:24.040Z,1.61
2022-11-30T05:34:51.920Z,1.65
2022-11-30T05:37:19.416Z,1.61
2022-11-30T05:39:45.944Z,1.55
2022-11-30T05:42:12.472Z,1.53
2022-11-30T05:44:38.999Z,1.52
2022-11-30T05:47:05.678Z,1.57
2022-11-30T05:49:32.235Z,1.56
2022-11-30T05:51:58.695Z,1.59
2022-11-30T05:54:25.217Z,1.54
2022-11-30T05:56:55.015Z,1.52
2022-11-30T05:59:21.892Z,1.52
2022-11-30T06:01:48.718Z,1.52
2022-11-30T06:04:15.415Z,1.54
2022-11-30T06:06:41.900Z,1.47
2022-11-30T06:09:08.426Z,1.47
2022-11-30T06:11:34.968Z,1.47
2022-11-30T06:14:01.682Z,1.49
2022-11-30T06:16:28.248Z,1.49
2022-11-30T06:18:54.854Z,1.48
2022-11-30T06:21:24.739Z,1.41
2022-11-30T06:23:52.395Z,1.48
2022-11-30T06:26:18.964Z,1.52
2022-11-30T06:28:48.536Z,1.49
2022-11-30T06:31:16.431Z,1.54
2022-11-30T06:33:43.223Z,1.47
2022-11-30T06:36:10.552Z,1.51
2022-11-30T06:38:37.380Z,1.50
2022-11-30T06:41:09.364Z,1.45
2022-11-30T06:43:39.608Z,1.43
2022-11-30T06:46:07.117Z,1.46
2022-11-30T06:48:34.968Z,2.14
2022-11-30T06:51:37.250Z,2.75
2022-11-30T06:54:03.836Z,2.38
2022-11-30T06:56:30.345Z,2.00
2022-11-30T06:58:57.652Z,1.92
2022-11-30T07:01:24.168Z,1.79
2022-11-30T07:03:50.910Z,1.71
2022-11-30T07:06:17.573Z,1.75
2022-11-30T07:08:44.487Z,1.82
2022-11-30T07:11:12.199Z,1.79
2022-11-30T07:13:39.043Z,1.75
2022-11-30T07:16:07.821Z,1.77
2022-11-30T07:18:35.105Z,1.86
2022-11-30T07:21:04.146Z,1.88
2022-11-30T07:23:55.538Z,1.87
2022-11-30T07:26:23.329Z,2.03
2022-11-30T07:28:54.688Z,1.98
2022-11-30T07:31:27.416Z,2.03
2022-11-30T07:33:54.895Z,2.03
2022-11-30T07:36:23.915Z,2.06
2022-11-30T07:38:50.464Z,2.14
2022-11-30T07:41:17.195Z,2.31
2022-11-30T07:43:44.548Z,2.60
2022-11-30T07:46:15.710Z,2.77
2022-11-30T07:48:43.890Z,2.89
2022-11-30T07:51:16.797Z,2.83
2022-11-30T07:53:44.261Z,2.94
2022-11-30T07:56:13.572Z,2.86
2022-11-30T07:58:41.437Z,2.66
2022-11-30T08:01:11.377Z,2.59
2022-11-30T08:03:38.302Z,2.64
2022-11-30T08:06:13.628Z,2.70
2022-11-30T08:08:42.655Z,2.66
2022-11-30T08:11:12.381Z,2.66
2022-11-30T08:13:39.256Z,2.79
2022-11-30T08:16:08.623Z,2.76
2022-11-30T08:18:35.231Z,2.80
2022-11-30T08:21:04.529Z,2.96
2022-11-30T08:23:33.066Z,2.96
2022-11-30T08:26:06.269Z,3.00
2022-11-30T08:28:36.098Z,2.89
2022-11-30T08:31:07.777Z,3.02
2022-11-30T08:33:35.983Z,2.91
2022-11-30T08:36:10.494Z,3.11
2022-11-30T08:38:37.764Z,3.16
2022-11-30T08:41:05.669Z,3.04
2022-11-30T08:43:32.245Z,3.06
2022-11-30T08:45:59.335Z,3.02
2022-11-30T08:48:25.943Z,2.96
2022-11-30T08:50:52.453Z,2.78
2022-11-30T08:53:19.217Z,2.92
2022-11-30T08:55:56.665Z,3.09
2022-11-30T08:58:23.172Z,3.20
2022-11-30T09:00:49.705Z,3.14
2022-11-30T09:03:16.362Z,3.36
2022-11-30T09:05:42.875Z,3.59
2022-11-30T09:08:09.426Z,3.76
2022-11-30T09:10:35.937Z,3.83
2022-11-30T09:13:02.429Z,4.11
2022-11-30T09:15:28.995Z,4.04
2022-11-30T09:17:55.482Z,4.32
2022-11-30T09:20:22.046Z,4.22
2022-11-30T09:22:48.549Z,3.92
2022-11-30T09:25:15.133Z,3.81
2022-11-30T09:27:41.623Z,3.71
2022-11-30T09:30:08.979Z,3.64
2022-11-30T09:32:35.572Z,3.44
2022-11-30T09:35:02.076Z,3.46
2022-11-30T09:37:28.598Z,3.53
2022-11-30T09:39:55.133Z,3.50
2022-11-30T09:42:33.657Z,3.77
2022-11-30T09:45:02.902Z,3.54
2022-11-30T09:47:35.584Z,3.55
2022-11-30T09:50:13.895Z,3.53
2022-11-30T09:52:45.030Z,3.55
2022-11-30T09:55:20.919Z,3.70
2022-11-30T09:57:54.571Z,3.60
2022-11-30T10:00:24.015Z,3.49
2022-11-30T10:02:53.001Z,3.50
2022-11-30T10:05:23.198Z,3.49
2022-11-30T10:08:12.823Z,3.49
2022-11-30T10:10:43.386Z,3.79
2022-11-30T10:13:12.829Z,3.78
2022-11-30T10:16:21.082Z,3.70
2022-11-30T10:18:54.267Z,3.67
2022-11-30T10:21:41.305Z,3.85
2022-11-30T10:24:21.030Z,3.56
2022-11-30T10:26:55.985Z,3.53
2022-11-30T10:29:28.334Z,3.44
2022-11-30T10:32:03.059Z,3.35
2022-11-30T10:34:35.701Z,3.33
2022-11-30T10:37:18.031Z,3.41
2022-11-30T10:40:01.564Z,3.40
2022-11-30T10:42:37.244Z,3.27
2022-11-30T10:45:10.726Z,3.24
2022-11-30T10:47:44.541Z,3.05
2022-11-30T10:50:15.491Z,3.14
2022-11-30T10:52:55.442Z,3.22
2022-11-30T10:55:25.008Z,3.23
2022-11-30T10:58:00.112Z,3.29
2022-11-30T11:00:26.710Z,3.45
2022-11-30T11:02:53.665Z,3.45
2022-11-30T11:05:20.376Z,3.57
2022-11-30T11:08:05.923Z,3.81
2022-11-30T11:10:44.468Z,4.10
2022-11-30T11:13:19.242Z,4.18
2022-11-30T11:16:00.599Z,4.11
2022-11-30T11:18:29.424Z,4.33
2022-11-30T11:21:14.515Z,4.39
2022-11-30T11:23:42.472Z,4.48
2022-11-30T11:26:27.351Z,4.46
2022-11-30T11:28:56.822Z,4.58
2022-11-30T11:31:32.493Z,4.63
2022-11-30T11:33:59.057Z,4.48
2022-11-30T11:36:29.728Z,4.27
2022-11-30T11:38:57.292Z,4.26
2022-11-30T11:41:37.546Z,4.43
2022-11-30T11:44:10.213Z,4.55
2022-11-30T11:46:53.762Z,4.36
2022-11-30T11:49:26.496Z,4.23
2022-11-30T11:52:19.446Z,4.13
2022-11-30T11:54:58.950Z,4.13
2022-11-30T11:57:40.846Z,4.07
2022-11-30T12:00:17.564Z,3.88
2022-11-30T12:03:10.999Z,3.96
2022-11-30T12:05:43.381Z,3.95
2022-11-30T12:08:28.661Z,4.09
2022-11-30T12:11:00.865Z,4.07
2022-11-30T12:13:33.225Z,4.13
2022-11-30T12:16:11.875Z,4.16
2022-11-30T12:19:03.257Z,3.81
2022-11-30T12:21:52.160Z,3.70
2022-11-30T12:24:30.577Z,3.70
2022-11-30T12:27:31.517Z,3.59
2022-11-30T12:30:24.808Z,3.62
2022-11-30T12:32:54.295Z,3.71
2022-11-30T12:35:23.842Z,3.65
2022-11-30T12:38:12.073Z,3.55
2022-11-30T12:41:01.912Z,3.59
2022-11-30T12:44:28.866Z,3.26
2022-11-30T12:47:10.247Z,3.32
2022-11-30T12:49:49.009Z,3.28
2022-11-30T12:52:27.621Z,3.30
2022-11-30T12:54:54.058Z,3.18
2022-11-30T12:57:55.460Z,3.23
2022-11-30T13:00:24.321Z,3.28
2022-11-30T13:03:05.661Z,3.29
2022-11-30T13:05:41.432Z,3.36
2022-11-30T13:08:19.992Z,3.32
2022-11-30T13:10:51.707Z,3.07
2022-11-30T13:13:28.905Z,3.08
2022-11-30T13:15:56.519Z,3.03
2022-11-30T13:18:24.207Z,3.06
2022-11-30T13:21:26.928Z,3.04
2022-11-30T13:24:07.738Z,3.09
2022-11-30T13:26:51.925Z,3.13
2022-11-30T13:29:35.829Z,3.05
2022-11-30T13:32:33.749Z,3.09
2022-11-30T13:35:37.789Z,3.11
2022-11-30T13:38:35.617Z,3.10
2022-11-30T13:41:03.331Z,3.03
2022-11-30T13:43:35.078Z,3.00
2022-11-30T13:46:06.446Z,2.87
2022-11-30T13:48:38.250Z,2.94
2022-11-30T13:51:05.487Z,3.06
2022-11-30T13:53:38.615Z,3.04
2022-11-30T13:56:27.147Z,2.83
2022-11-30T13:59:34.558Z,2.67
2022-11-30T14:02:29.082Z,2.54
2022-11-30T14:05:16.756Z,2.51
2022-11-30T14:07:47.783Z,2.55
2022-11-30T14:10:34.765Z,2.43
2022-11-30T14:13:25.354Z,2.35
2022-11-30T14:15:55.572Z,2.23
2022-11-30T14:18:42.057Z,2.37
2022-11-30T14:21:31.346Z,3.14
2022-11-30T14:24:06.722Z,2.71
2022-11-30T14:26:43.565Z,2.44
2022-11-30T14:29:19.217Z,2.31
2022-11-30T14:32:00.225Z,2.24
2022-11-30T14:34:32.638Z,2.23
2022-11-30T14:37:20.979Z,2.27
2022-11-30T14:39:49.144Z,2.29
2022-11-30T14:42:30.544Z,2.22
2022-11-30T14:44:58.193Z,2.16
2022-11-30T14:47:32.083Z,2.13
2022-11-30T14:50:02.656Z,3.59
2022-11-30T14:52:44.248Z,3.75
2022-11-30T14:55:16.492Z,3.19
2022-11-30T14:58:19.991Z,2.75
2022-11-30T15:00:47.553Z,2.57
2022-11-30T15:03:31.233Z,2.50
2022-11-30T15:06:03.394Z,2.29
2022-11-30T15:08:37.787Z,2.06
2022-11-30T15:11:06.888Z,1.90
2022-11-30T15:13:34.282Z,1.85
2022-11-30T15:16:00.925Z,1.80
2022-11-30T15:18:27.466Z,1.79
2022-11-30T15:21:05.712Z,1.76
2022-11-30T15:23:32.378Z,1.73
2022-11-30T15:26:05.860Z,1.72
2022-11-30T15:28:37.569Z,1.69
2022-11-30T15:31:07.877Z,1.65
2022-11-30T15:33:40.978Z,1.63
2022-11-30T15:36:31.222Z,1.68
2022-11-30T15:38:54.641Z,1.60
2022-11-30T15:41:24.360Z,1.48
2022-11-30T15:43:53.796Z,1.44
2022-11-30T15:46:38.768Z,1.43
2022-11-30T15:49:10.906Z,1.42
2022-11-30T15:51:40.582Z,1.33
2022-11-30T15:54:07.610Z,1.26
2022-11-30T15:56:34.767Z,1.25
2022-11-30T15:59:06.139Z,1.20
2022-11-30T16:02:02.713Z,1.20
2022-11-30T16:04:57.956Z,1.23
2022-11-30T16:07:27.507Z,1.25
2022-11-30T16:10:07.120Z,1.26
2022-11-30T16:12:33.890Z,1.19
2022-11-30T16:15:00.496Z,1.19
2022-11-30T16:17:28.191Z,1.22
2022-11-30T16:19:54.665Z,1.25
2022-11-30T16:22:21.230Z,1.22
2022-11-30T16:24:47.747Z,1.22
2022-11-30T16:27:19.376Z,1.24
2022-11-30T16:29:52.118Z,1.25
2022-11-30T16:32:19.276Z,1.23
2022-11-30T16:34:47.865Z,1.26
2022-11-30T16:37:14.834Z,1.33
2022-11-30T16:39:41.331Z,1.31
2022-11-30T16:42:11.718Z,1.32
2022-11-30T16:44:38.569Z,1.29
2022-11-30T16:47:05.145Z,1.20
2022-11-30T16:49:31.809Z,1.09
2022-11-30T16:51:58.380Z,0.98
2022-11-30T16:54:24.869Z,0.91
2022-11-30T16:56:51.395Z,0.89
2022-11-30T16:59:17.866Z,0.85
2022-11-30T17:01:47.420Z,0.88
2022-11-30T17:04:26.400Z,0.93
2022-11-30T17:06:58.737Z,0.87
2022-11-30T17:09:29.808Z,0.85
2022-11-30T17:11:56.358Z,0.82
2022-11-30T17:14:22.815Z,0.76
2022-11-30T17:16:49.626Z,0.66
2022-11-30T17:19:16.247Z,0.63
2022-11-30T17:21:44.701Z,0.64
2022-11-30T17:24:13.223Z,0.62
2022-11-30T17:26:40.617Z,0.61
2022-11-30T17:29:07.145Z,0.62
2022-11-30T17:31:34.333Z,0.58
2022-11-30T17:34:01.035Z,0.59
2022-11-30T17:36:29.329Z,0.56
2022-11-30T17:38:56.160Z,0.55
2022-11-30T17:41:22.893Z,0.59
2022-11-30T17:43:49.652Z,0.59
2022-11-30T17:46:18.115Z,0.49
2022-11-30T17:48:45.096Z,0.45
2022-11-30T17:51:12.496Z,0.33
2022-11-30T17:53:40.737Z,0.21
2022-11-30T17:56:09.735Z,0.16
2022-11-30T17:58:43.012Z,0.06
2022-11-30T18:01:16.215Z,0.16
2022-11-30T18:03:42.918Z,0.21
2022-11-30T18:06:09.422Z,0.20
2022-11-30T18:08:37.862Z,0.13
2022-11-30T18:11:20.195Z,0.10
2022-11-30T18:13:48.056Z,0.06
2022-11-30T18:16:17.953Z,0.08
2022-11-30T18:18:48.100Z,0.12
2022-11-30T18:21:20.310Z,0.08
2022-11-30T18:23:47.810Z,-0.10
2022-11-30T18:26:17.666Z,-0.27
2022-11-30T18:28:45.167Z,-0.39
2022-11-30T18:31:11.812Z,-0.47
2022-11-30T18:33:38.489Z,-0.63
2022-11-30T18:36:08.821Z,-0.71
2022-11-30T18:38:38.518Z,-0.87
2022-11-30T18:41:05.762Z,-1.01
2022-11-30T18:43:33.513Z,-1.01
2022-11-30T18:46:08.823Z,-1.01
2022-11-30T18:48:36.020Z,-0.94
2022-11-30T18:51:17.286Z,-0.81
2022-11-30T18:53:44.280Z,-0.87
2022-11-30T18:56:14.435Z,-0.89
2022-11-30T18:58:42.129Z,-0.91
2022-11-30T19:01:20.095Z,-0.95
2022-11-30T19:03:54.851Z,-0.93
2022-11-30T19:06:21.805Z,-0.97
2022-11-30T19:08:48.758Z,-0.90
2022-11-30T19:11:16.725Z,-0.93
2022-11-30T19:13:44.280Z,-0.95
2022-11-30T19:16:13.934Z,-0.82
2022-11-30T19:18:40.901Z,-0.75
2022-11-30T19:21:12.874Z,-0.76
2022-11-30T19:23:39.717Z,-0.75
2022-11-30T19:26:07.764Z,-0.79
2022-11-30T19:28:35.953Z,-0.76
2022-11-30T19:31:13.895Z,-0.65
2022-11-30T19:33:43.021Z,-0.58
2022-11-30T19:36:16.768Z,-0.63
2022-11-30T19:38:43.841Z,-0.72
2022-11-30T19:41:12.310Z,-0.72
2022-11-30T19:43:39.647Z,-0.68
2022-11-30T19:46:08.041Z,-0.74
2022-11-30T19:48:35.412Z,-0.74
2022-11-30T19:51:10.938Z,-0.68
2022-11-30T19:53:41.199Z,-0.60
2022-11-30T19:56:10.375Z,-0.52
2022-11-30T19:58:36.910Z,-0.49
2022-11-30T20:01:05.099Z,-0.39
2022-11-30T20:03:35.309Z,-0.47
2022-11-30T20:06:02.316Z,-0.54
2022-11-30T20:08:29.274Z,-0.62
2022-11-30T20:10:55.767Z,-0.65
2022-11-30T20:13:22.311Z,-0.69
2022-11-30T20:15:48.876Z,-0.78
2022-11-30T20:18:15.459Z,-0.85
2022-11-30T20:20:41.986Z,-0.91
2022-11-30T20:23:08.526Z,-0.91
2022-11-30T20:25:35.122Z,-0.95
2022-11-30T20:28:01.708Z,-0.96
2022-11-30T20:30:28.497Z,-0.96
2022-11-30T20:32:55.154Z,-0.87
2022-11-30T20:35:21.672Z,-0.73
2022-11-30T20:37:48.256Z,-0.73
2022-11-30T20:40:14.912Z,-0.68
2022-11-30T20:42:41.446Z,-0.53
2022-11-30T20:45:08.291Z,-0.44
2022-11-30T20:47:35.322Z,-0.31
2022-11-30T20:50:02.814Z,-0.30
2022-11-30T20:52:29.338Z,-0.27
2022-11-30T20:54:56.167Z,-0.21
2022-11-30T20:57:23.234Z,-0.19
2022-11-30T20:59:49.789Z,-0.20
2022-11-30T21:02:16.478Z,-0.15
2022-11-30T21:04:43.186Z,-0.27
2022-11-30T21:07:09.654Z,-0.25
2022-11-30T21:09:36.172Z,-0.20
2022-11-30T21:12:02.661Z,-0.13
2022-11-30T21:14:29.232Z,-0.05
2022-11-30T21:16:55.811Z,0.00
2022-11-30T21:19:22.857Z,0.01
2022-11-30T21:21:49.450Z,-0.02
2022-11-30T21:24:15.989Z,-0.01
2022-11-30T21:26:43.096Z,-0.01
2022-11-30T21:29:17.393Z,-0.01
2022-11-30T21:31:44.882Z,-0.01
2022-11-30T21:34:11.450Z,0.03
2022-11-30T21:36:38.642Z,0.10
2022-11-30T21:39:08.934Z,0.22
2022-11-30T21:41:37.398Z,0.21
2022-11-30T21:44:05.307Z,0.15
2022-11-30T21:46:32.409Z,0.09
2022-11-30T21:48:59.063Z,0.14
2022-11-30T21:51:28.738Z,0.19
2022-11-30T21:53:57.729Z,0.22
2022-11-30T21:56:31.382Z,0.21
2022-11-30T21:58:58.556Z,0.31
2022-11-30T22:01:26.911Z,0.32
2022-11-30T22:03:56.859Z,0.40
2022-11-30T22:06:24.216Z,0.44
2022-11-30T22:08:50.891Z,0.51
2022-11-30T22:11:20.545Z,0.50
2022-11-30T22:13:51.579Z,0.58
2022-11-30T22:16:18.745Z,0.53
2022-11-30T22:18:45.941Z,0.57
2022-11-30T22:21:17.792Z,0.53
2022-11-30T22:23:47.602Z,0.70
2022-11-30T22:26:17.326Z,0.79
2022-11-30T22:28:47.376Z,0.78
2022-11-30T22:31:16.029Z,0.85
2022-11-30T22:33:43.719Z,0.91
2022-11-30T22:36:15.379Z,0.87
2022-11-30T22:38:42.111Z,0.86
2022-11-30T22:41:17.149Z,0.83
2022-11-30T22:43:46.354Z,0.90
2022-11-30T22:46:22.243Z,0.87
2022-11-30T22:48:50.276Z,0.81
2022-11-30T22:51:19.360Z,0.93
2022-11-30T22:53:47.959Z,0.90
2022-11-30T22:56:17.839Z,0.90
2022-11-30T22:58:46.949Z,0.98
2022-11-30T23:01:19.222Z,0.97
2022-11-30T23:03:47.565Z,0.98
2022-11-30T23:06:15.864Z,1.02
2022-11-30T23:08:43.110Z,1.01
2022-11-30T23:11:12.548Z,1.13
2022-11-30T23:13:40.378Z,1.11
2022-11-30T23:16:07.792Z,1.02
2022-11-30T23:18:39.789Z,1.14
2022-11-30T23:21:12.842Z,1.12
2022-11-30T23:23:39.942Z,1.20
2022-11-30T23:26:21.755Z,1.22
2022-11-30T23:28:50.047Z,1.19
2022-11-30T23:31:34.571Z,1.20
2022-11-30T23:34:11.359Z,1.16
2022-11-30T23:36:38.060Z,1.10
2022-11-30T23:39:07.714Z,1.11
2022-11-30T23:41:34.245Z,1.07
2022-11-30T23:44:01.703Z,1.06
2022-11-30T23:46:28.689Z,1.09
2022-11-30T23:48:55.859Z,1.09
2022-11-30T23:51:23.465Z,1.03
2022-11-30T23:53:50.106Z,1.06
2022-11-30T23:56:18.396Z,1.05
2022-11-30T23:58:45.311Z,1.01
